Temp: 17.4°C   Baro: 1024.3mb
  Wind: 2.9mph   Dir: N (356°)
  Rain: 7.0mm (0.0mm/hr)
  Solar: 51W/m2  Hum: 64%

Historic data

Bath Spa Weather Station Historical Data
Daily Summary for August 05, 2022 Units:  Both    English   Metric
Daily Weekly Monthly Yearly Custom
  High: Low: Average:
Temperature: 70.2 °F /  21.2 °C 50.1 °F /  10.1 °C 61.4 °F /  16.3 °C
Dew Point: 52.3 °F /  11.3 °C 44.5 °F /  6.9 °C 48.5 °F /  9.2 °C
Humidity: 83% 47% 64%
Wind Speed: 12mph /  19.3km/h - 3.8mph /  6.1km/h
Wind Gust: 19mph /  30.6km/h - -
Wind- - NW
Pressure: 30.38 in /  1028.7 hPa 30.14 in /  1020.5 hPa -
Precipitation: 0.00 in /  0 mm    
Historical Graphs
 
 
Tabular Data for August 05, 2022
Time Temperature Dew Point Pressure Wind Wind Speed Wind Gust Humidity Rainfall Rate (Hourly) solar
00:09 59 °F /  15 °C 47.8 °F /  8.8 °C 30.14in /  1020.5hPa NW 1.6mph /  2.6km/h 3mph /  4.8km/h 66.4% 0.00in /  0mm 0 W/m2
00:14 59 °F /  15 °C 48.1 °F /  8.9 °C 30.14in /  1020.5hPa NW 2.1mph /  3.4km/h 4mph /  6.4km/h 67.4% 0.00in /  0mm 0 W/m2
00:19 58.8 °F /  14.9 °C 48.2 °F /  9 °C 30.14in /  1020.5hPa WNW 1.9mph /  3.1km/h 3mph /  4.8km/h 68% 0.00in /  0mm 0 W/m2
00:24 58.7 °F /  14.8 °C 48.2 °F /  9 °C 30.14in /  1020.5hPa WNW 1.3mph /  2.1km/h 4mph /  6.4km/h 68% 0.00in /  0mm 0 W/m2
00:29 58.6 °F /  14.8 °C 47.7 °F /  8.7 °C 30.14in /  1020.5hPa WNW 1.2mph /  1.9km/h 4mph /  6.4km/h 67% 0.00in /  0mm 0 W/m2
00:34 58.6 °F /  14.8 °C 47.7 °F /  8.7 °C 30.14in /  1020.5hPa WNW 1.4mph /  2.3km/h 3mph /  4.8km/h 67% 0.00in /  0mm 0 W/m2
00:39 58.6 °F /  14.8 °C 47.7 °F /  8.7 °C 30.14in /  1020.5hPa WNW 1.6mph /  2.6km/h 3mph /  4.8km/h 67% 0.00in /  0mm 0 W/m2
00:44 58.6 °F /  14.8 °C 47.7 °F /  8.7 °C 30.15in /  1020.9hPa WNW 1.2mph /  1.9km/h 4mph /  6.4km/h 67% 0.00in /  0mm 0 W/m2
00:49 58.6 °F /  14.8 °C 47.7 °F /  8.7 °C 30.15in /  1020.9hPa WNW 1.1mph /  1.8km/h 3mph /  4.8km/h 67% 0.00in /  0mm 0 W/m2
00:54 58.6 °F /  14.8 °C 47.7 °F /  8.7 °C 30.15in /  1020.9hPa WNW 1.5mph /  2.4km/h 4mph /  6.4km/h 67% 0.00in /  0mm 0 W/m2
00:59 58.6 °F /  14.8 °C 47.7 °F /  8.7 °C 30.15in /  1020.9hPa WNW 0.5mph /  0.8km/h 3mph /  4.8km/h 67% 0.00in /  0mm 0 W/m2
01:04 58.5 °F /  14.7 °C 47.5 °F /  8.6 °C 30.15in /  1020.9hPa WNW 1.9mph /  3.1km/h 4mph /  6.4km/h 67% 0.00in /  0mm 0 W/m2
01:09 58.5 °F /  14.7 °C 47.5 °F /  8.6 °C 30.15in /  1020.9hPa WNW 1.8mph /  2.9km/h 4mph /  6.4km/h 67% 0.00in /  0mm 0 W/m2
01:14 58.5 °F /  14.7 °C 47.5 °F /  8.6 °C 30.15in /  1020.9hPa WNW 1.5mph /  2.4km/h 4mph /  6.4km/h 67% 0.00in /  0mm 0 W/m2
01:19 58.5 °F /  14.7 °C 47.5 °F /  8.6 °C 30.15in /  1020.9hPa NW 2.4mph /  3.9km/h 5mph /  8km/h 67% 0.00in /  0mm 0 W/m2
01:24 58.5 °F /  14.7 °C 47.6 °F /  8.7 °C 30.15in /  1020.9hPa NNW 1.7mph /  2.7km/h 5mph /  8km/h 67.2% 0.00in /  0mm 0 W/m2
01:29 58.3 °F /  14.6 °C 47.6 °F /  8.7 °C 30.15in /  1020.9hPa NW 2mph /  3.2km/h 4mph /  6.4km/h 67.6% 0.00in /  0mm 0 W/m2
01:34 58.3 °F /  14.6 °C 47.8 °F /  8.8 °C 30.15in /  1020.9hPa NW 2.3mph /  3.7km/h 6mph /  9.7km/h 68% 0.00in /  0mm 0 W/m2
01:39 58.1 °F /  14.5 °C 47.8 °F /  8.8 °C 30.15in /  1020.9hPa NW 2.9mph /  4.7km/h 5mph /  8km/h 68.4% 0.00in /  0mm 0 W/m2
01:44 57.9 °F /  14.4 °C 47.8 °F /  8.8 °C 30.15in /  1020.9hPa NW 1.9mph /  3.1km/h 5mph /  8km/h 69% 0.00in /  0mm 0 W/m2
01:49 57.8 °F /  14.3 °C 47.8 °F /  8.8 °C 30.16in /  1021.2hPa NW 2.2mph /  3.5km/h 5mph /  8km/h 69% 0.00in /  0mm 0 W/m2
01:54 57.8 °F /  14.3 °C 47.9 °F /  8.8 °C 30.16in /  1021.2hPa NW 1.3mph /  2.1km/h 4mph /  6.4km/h 69.4% 0.00in /  0mm 0 W/m2
01:59 57.7 °F /  14.3 °C 48 °F /  8.9 °C 30.16in /  1021.2hPa NW 2.4mph /  3.9km/h 6mph /  9.7km/h 70% 0.00in /  0mm 0 W/m2
02:04 57.8 °F /  14.3 °C 48.1 °F /  8.9 °C 30.16in /  1021.2hPa NW 2.1mph /  3.4km/h 5mph /  8km/h 70% 0.00in /  0mm 0 W/m2
02:09 57.7 °F /  14.3 °C 48 °F /  8.9 °C 30.16in /  1021.2hPa WNW 2.5mph /  4km/h 6mph /  9.7km/h 70% 0.00in /  0mm 0 W/m2
02:14 57.7 °F /  14.3 °C 48.2 °F /  9 °C 30.16in /  1021.2hPa NW 2.4mph /  3.9km/h 4mph /  6.4km/h 70.4% 0.00in /  0mm 0 W/m2
02:19 57.6 °F /  14.2 °C 48.2 °F /  9 °C 30.16in /  1021.2hPa NW 1.2mph /  1.9km/h 3mph /  4.8km/h 71% 0.00in /  0mm 0 W/m2
02:24 57.6 °F /  14.2 °C 48.2 °F /  9 °C 30.16in /  1021.2hPa NW 1.5mph /  2.4km/h 3mph /  4.8km/h 71% 0.00in /  0mm 0 W/m2
02:29 57.2 °F /  14 °C 48 °F /  8.9 °C 30.16in /  1021.2hPa WNW 2mph /  3.2km/h 5mph /  8km/h 71.6% 0.00in /  0mm 0 W/m2
02:33 57 °F /  13.9 °C 48 °F /  8.9 °C 30.16in /  1021.2hPa WNW 3mph /  4.8km/h 5mph /  8km/h 72% 0.00in /  0mm 0 W/m2
02:39 56.8 °F /  13.8 °C 48.2 °F /  9 °C 30.16in /  1021.2hPa WNW 2.4mph /  3.9km/h 4mph /  6.4km/h 73% 0.00in /  0mm 0 W/m2
02:44 56.7 °F /  13.7 °C 48.1 °F /  8.9 °C 30.16in /  1021.2hPa WNW 2.6mph /  4.2km/h 5mph /  8km/h 73% 0.00in /  0mm 0 W/m2
02:49 56.7 °F /  13.7 °C 48 °F /  8.9 °C 30.16in /  1021.2hPa WNW 1.2mph /  1.9km/h 3mph /  4.8km/h 73% 0.00in /  0mm 0 W/m2
02:54 56.6 °F /  13.7 °C 48.2 °F /  9 °C 30.16in /  1021.2hPa WNW 1.3mph /  2.1km/h 2mph /  3.2km/h 73.4% 0.00in /  0mm 0 W/m2
02:59 56.5 °F /  13.6 °C 48.4 °F /  9.1 °C 30.17in /  1021.6hPa WNW 1.2mph /  1.9km/h 3mph /  4.8km/h 74% 0.00in /  0mm 0 W/m2
03:04 56.3 °F /  13.5 °C 48.2 °F /  9 °C 30.17in /  1021.6hPa Calm   2mph /  3.2km/h 74% 0.00in /  0mm 0 W/m2
03:09 56 °F /  13.3 °C 47.9 °F /  8.8 °C 30.17in /  1021.6hPa WNW 2.5mph /  4km/h 3mph /  4.8km/h 74% 0.00in /  0mm 0 W/m2
03:14 55.8 °F /  13.2 °C 47.9 °F /  8.8 °C 30.17in /  1021.6hPa WNW 1.4mph /  2.3km/h 3mph /  4.8km/h 74.8% 0.00in /  0mm 0 W/m2
03:19 55.6 °F /  13.1 °C 47.8 °F /  8.8 °C 30.17in /  1021.6hPa WNW 2.2mph /  3.5km/h 4mph /  6.4km/h 75% 0.00in /  0mm 0 W/m2
03:24 55.6 °F /  13.1 °C 47.8 °F /  8.8 °C 30.17in /  1021.6hPa WNW 0.5mph /  0.8km/h 4mph /  6.4km/h 75% 0.00in /  0mm 0 W/m2
03:29 55.6 °F /  13.1 °C 47.8 °F /  8.8 °C 30.17in /  1021.6hPa WNW 1mph /  1.6km/h 2mph /  3.2km/h 75% 0.00in /  0mm 0 W/m2
03:34 55.3 °F /  12.9 °C 47.9 °F /  8.8 °C 30.17in /  1021.6hPa WNW 0.5mph /  0.8km/h 1mph /  1.6km/h 76% 0.00in /  0mm 0 W/m2
03:39 55.2 °F /  12.9 °C 47.8 °F /  8.8 °C 30.17in /  1021.6hPa WNW 0.7mph /  1.1km/h 2mph /  3.2km/h 76% 0.00in /  0mm 0 W/m2
03:44 55.2 °F /  12.9 °C 47.8 °F /  8.8 °C 30.17in /  1021.6hPa WNW 0.4mph /  0.6km/h 2mph /  3.2km/h 76% 0.00in /  0mm 0 W/m2
03:49 55 °F /  12.8 °C 47.7 °F /  8.7 °C 30.17in /  1021.6hPa Calm   1mph /  1.6km/h 76% 0.00in /  0mm 0 W/m2
03:54 54.9 °F /  12.7 °C 47.5 °F /  8.6 °C 30.17in /  1021.6hPa Calm     76% 0.00in /  0mm 0 W/m2
03:59 54.7 °F /  12.6 °C 47.7 °F /  8.7 °C 30.17in /  1021.6hPa Calm     77% 0.00in /  0mm 0 W/m2
04:04 54.7 °F /  12.6 °C 47.7 °F /  8.7 °C 30.17in /  1021.6hPa Calm     77% 0.00in /  0mm 0 W/m2
04:09 54.4 °F /  12.4 °C 47.4 °F /  8.6 °C 30.18in /  1021.9hPa Calm     77% 0.00in /  0mm 0 W/m2
04:14 54.3 °F /  12.4 °C 47.3 °F /  8.5 °C 30.18in /  1021.9hPa Calm     77% 0.00in /  0mm 0 W/m2
04:19 54.1 °F /  12.3 °C 47.1 °F /  8.4 °C 30.18in /  1021.9hPa Calm     77% 0.00in /  0mm 0 W/m2
04:24 54 °F /  12.2 °C 46.9 °F /  8.3 °C 30.17in /  1021.6hPa Calm     77% 0.00in /  0mm 0 W/m2
04:28 53.8 °F /  12.1 °C 46.8 °F /  8.2 °C 30.17in /  1021.6hPa Calm     77% 0.00in /  0mm 0 W/m2
04:34 53.4 °F /  11.9 °C 46.5 °F /  8.1 °C 30.18in /  1021.9hPa WNW 0.6mph /  1km/h 2mph /  3.2km/h 77.2% 0.00in /  0mm 0 W/m2
04:39 53.2 °F /  11.8 °C 46.6 °F /  8.1 °C 30.18in /  1021.9hPa Calm   1mph /  1.6km/h 78% 0.00in /  0mm 0 W/m2
04:44 53.1 °F /  11.7 °C 46.4 °F /  8 °C 30.18in /  1021.9hPa Calm     78% 0.00in /  0mm 0 W/m2
04:49 53 °F /  11.7 °C 46.3 °F /  7.9 °C 30.18in /  1021.9hPa Calm   1mph /  1.6km/h 78% 0.00in /  0mm 0 W/m2
04:54 52.9 °F /  11.6 °C 46.2 °F /  7.9 °C 30.18in /  1021.9hPa WNW 0.4mph /  0.6km/h 1mph /  1.6km/h 78% 0.00in /  0mm 0 W/m2
04:59 52.7 °F /  11.5 °C 46 °F /  7.8 °C 30.18in /  1021.9hPa WNW 0.5mph /  0.8km/h 1mph /  1.6km/h 78% 0.00in /  0mm 0 W/m2
05:04 52.5 °F /  11.4 °C 45.9 °F /  7.7 °C 30.18in /  1021.9hPa WNW 0.2mph /  0.3km/h 1mph /  1.6km/h 78% 0.00in /  0mm 0 W/m2
05:09 52.3 °F /  11.3 °C 45.6 °F /  7.6 °C 30.18in /  1021.9hPa Calm   1mph /  1.6km/h 78% 0.00in /  0mm 0 W/m2
05:14 52.1 °F /  11.2 °C 45.4 °F /  7.4 °C 30.17in /  1021.6hPa Calm     78% 0.00in /  0mm 0 W/m2
05:19 51.8 °F /  11 °C 45.2 °F /  7.3 °C 30.18in /  1021.9hPa Calm     78% 0.00in /  0mm 0 W/m2
05:24 51.6 °F /  10.9 °C 45 °F /  7.2 °C 30.18in /  1021.9hPa Calm   1mph /  1.6km/h 78% 0.00in /  0mm 0 W/m2
05:29 51.3 °F /  10.7 °C 44.7 °F /  7.1 °C 30.18in /  1021.9hPa WNW 0.5mph /  0.8km/h 2mph /  3.2km/h 78% 0.00in /  0mm 0 W/m2
05:34 51.3 °F /  10.7 °C 44.6 °F /  7 °C 30.19in /  1022.2hPa WNW 0.2mph /  0.3km/h 2mph /  3.2km/h 78% 0.00in /  0mm 0 W/m2
05:39 51.1 °F /  10.6 °C 44.8 °F /  7.1 °C 30.19in /  1022.2hPa WNW 0.5mph /  0.8km/h 3mph /  4.8km/h 78.8% 0.00in /  0mm 0 W/m2
05:44 51 °F /  10.6 °C 44.7 °F /  7.1 °C 30.19in /  1022.2hPa WNW 1mph /  1.6km/h 3mph /  4.8km/h 79% 0.00in /  0mm 5 W/m2
05:49 50.7 °F /  10.4 °C 44.6 °F /  7 °C 30.19in /  1022.2hPa WNW 0.5mph /  0.8km/h 3mph /  4.8km/h 79.6% 0.00in /  0mm 7 W/m2
05:54 50.5 °F /  10.3 °C 44.6 °F /  7 °C 30.19in /  1022.2hPa WNW 0.4mph /  0.6km/h 1mph /  1.6km/h 80% 0.00in /  0mm 9 W/m2
05:59 50.4 °F /  10.2 °C 44.5 °F /  6.9 °C 30.19in /  1022.2hPa WNW 1.6mph /  2.6km/h 2mph /  3.2km/h 80.4% 0.00in /  0mm 11 W/m2
06:04 50.2 °F /  10.1 °C 44.6 °F /  7 °C 30.19in /  1022.2hPa WNW 1.2mph /  1.9km/h 3mph /  4.8km/h 81% 0.00in /  0mm 12 W/m2
06:09 50.2 °F /  10.1 °C 44.7 °F /  7.1 °C 30.19in /  1022.2hPa WNW 0.6mph /  1km/h 3mph /  4.8km/h 81.4% 0.00in /  0mm 14 W/m2
06:14 50.1 °F /  10.1 °C 44.9 °F /  7.2 °C 30.19in /  1022.2hPa WNW 0.2mph /  0.3km/h 1mph /  1.6km/h 82% 0.00in /  0mm 16 W/m2
06:19 50.1 °F /  10.1 °C 44.9 °F /  7.2 °C 30.20in /  1022.6hPa WNW 1mph /  1.6km/h 4mph /  6.4km/h 82% 0.00in /  0mm 18 W/m2
06:24 50.2 °F /  10.1 °C 45 °F /  7.2 °C 30.20in /  1022.6hPa WNW 1.7mph /  2.7km/h 4mph /  6.4km/h 82% 0.00in /  0mm 19 W/m2
06:29 50.2 °F /  10.1 °C 45 °F /  7.2 °C 30.20in /  1022.6hPa WNW 1.2mph /  1.9km/h 4mph /  6.4km/h 82% 0.00in /  0mm 19 W/m2
06:34 50.2 °F /  10.1 °C 45.1 °F /  7.3 °C 30.20in /  1022.6hPa WNW 0.6mph /  1km/h 3mph /  4.8km/h 83% 0.00in /  0mm 21 W/m2
06:39 50.4 °F /  10.2 °C 45.3 °F /  7.4 °C 30.20in /  1022.6hPa WNW 0.5mph /  0.8km/h 2mph /  3.2km/h 83% 0.00in /  0mm 23 W/m2
06:44 50.5 °F /  10.3 °C 45.5 °F /  7.5 °C 30.20in /  1022.6hPa WNW 0.2mph /  0.3km/h 2mph /  3.2km/h 83% 0.00in /  0mm 25 W/m2
06:49 50.7 °F /  10.4 °C 45.7 °F /  7.6 °C 30.21in /  1022.9hPa WNW 0.8mph /  1.3km/h 3mph /  4.8km/h 83% 0.00in /  0mm 25 W/m2
06:54 50.9 °F /  10.5 °C 45.9 °F /  7.7 °C 30.21in /  1022.9hPa WNW 0.4mph /  0.6km/h 3mph /  4.8km/h 83% 0.00in /  0mm 28 W/m2
06:59 51.2 °F /  10.7 °C 46.1 °F /  7.8 °C 30.21in /  1022.9hPa WNW 1mph /  1.6km/h 3mph /  4.8km/h 83% 0.00in /  0mm 33 W/m2
07:04 51.4 °F /  10.8 °C 46.3 °F /  7.9 °C 30.21in /  1022.9hPa WNW 1.4mph /  2.3km/h 3mph /  4.8km/h 82.8% 0.00in /  0mm 40 W/m2
07:09 51.7 °F /  10.9 °C 46.3 °F /  7.9 °C 30.21in /  1022.9hPa WNW 1.2mph /  1.9km/h 2mph /  3.2km/h 82% 0.00in /  0mm 53 W/m2
07:14 52.1 °F /  11.2 °C 46.7 °F /  8.2 °C 30.21in /  1022.9hPa WNW 0.9mph /  1.4km/h 3mph /  4.8km/h 82% 0.00in /  0mm 67 W/m2
07:19 52.4 °F /  11.3 °C 47 °F /  8.3 °C 30.21in /  1022.9hPa WNW 0.4mph /  0.6km/h 3mph /  4.8km/h 82% 0.00in /  0mm 83 W/m2
07:24 52.7 °F /  11.5 °C 47.2 °F /  8.4 °C 30.21in /  1022.9hPa WNW 0.8mph /  1.3km/h 3mph /  4.8km/h 81.8% 0.00in /  0mm 97 W/m2
07:29 53 °F /  11.7 °C 47.3 °F /  8.5 °C 30.21in /  1022.9hPa WNW 0.6mph /  1km/h 2mph /  3.2km/h 81% 0.00in /  0mm 113 W/m2
07:34 53.4 °F /  11.9 °C 47.7 °F /  8.7 °C 30.22in /  1023.2hPa WNW 1.4mph /  2.3km/h 3mph /  4.8km/h 81% 0.00in /  0mm 130 W/m2
07:38 54 °F /  12.2 °C 48.2 °F /  9 °C 30.22in /  1023.2hPa WNW 0.7mph /  1.1km/h 2mph /  3.2km/h 81% 0.00in /  0mm 144 W/m2
07:44 54.2 °F /  12.3 °C 48.1 °F /  8.9 °C 30.22in /  1023.2hPa WNW 1.1mph /  1.8km/h 3mph /  4.8km/h 80% 0.00in /  0mm 162 W/m2
07:49 54.7 °F /  12.6 °C 48.5 °F /  9.2 °C 30.22in /  1023.2hPa WNW 2.4mph /  3.9km/h 5mph /  8km/h 79.6% 0.00in /  0mm 179 W/m2
07:54 55.1 °F /  12.8 °C 48.6 °F /  9.2 °C 30.22in /  1023.2hPa West 2.4mph /  3.9km/h 5mph /  8km/h 78.8% 0.00in /  0mm 195 W/m2
07:59 55.6 °F /  13.1 °C 48.8 °F /  9.3 °C 30.22in /  1023.2hPa West 4.8mph /  7.7km/h 7mph /  11.3km/h 77.8% 0.00in /  0mm 211 W/m2
08:04 55.9 °F /  13.3 °C 48.7 °F /  9.3 °C 30.22in /  1023.2hPa West 3.9mph /  6.3km/h 7mph /  11.3km/h 76.6% 0.00in /  0mm 227 W/m2
08:09 56.1 °F /  13.4 °C 48.7 °F /  9.3 °C 30.22in /  1023.2hPa West 4mph /  6.4km/h 7mph /  11.3km/h 76% 0.00in /  0mm 243 W/m2
08:14 56.5 °F /  13.6 °C 48.8 °F /  9.3 °C 30.23in /  1023.6hPa West 4.5mph /  7.2km/h 9mph /  14.5km/h 75.4% 0.00in /  0mm 257 W/m2
08:19 56.8 °F /  13.8 °C 48.8 °F /  9.3 °C 30.23in /  1023.6hPa West 3.5mph /  5.6km/h 8mph /  12.9km/h 75% 0.00in /  0mm 272 W/m2
08:24 57 °F /  13.9 °C 49 °F /  9.4 °C 30.22in /  1023.2hPa WNW 3.4mph /  5.5km/h 6mph /  9.7km/h 74.6% 0.00in /  0mm 290 W/m2
08:29 57.5 °F /  14.2 °C 49.2 °F /  9.6 °C 30.23in /  1023.6hPa NW 3.9mph /  6.3km/h 7mph /  11.3km/h 74% 0.00in /  0mm 308 W/m2
08:34 57.7 °F /  14.3 °C 49.2 °F /  9.6 °C 30.23in /  1023.6hPa WNW 1.9mph /  3.1km/h 8mph /  12.9km/h 73.2% 0.00in /  0mm 323 W/m2
08:39 58.2 °F /  14.6 °C 49.5 °F /  9.7 °C 30.23in /  1023.6hPa WNW 4.8mph /  7.7km/h 8mph /  12.9km/h 72.8% 0.00in /  0mm 339 W/m2
08:44 58.5 °F /  14.7 °C 49.5 °F /  9.7 °C 30.23in /  1023.6hPa WNW 4.4mph /  7.1km/h 9mph /  14.5km/h 72% 0.00in /  0mm 357 W/m2
08:49 58.8 °F /  14.9 °C 49.7 °F /  9.8 °C 30.23in /  1023.6hPa WNW 5.2mph /  8.4km/h 11mph /  17.7km/h 71.5% 0.00in /  0mm 373 W/m2
08:54 59.2 °F /  15.1 °C 49.5 °F /  9.7 °C 30.23in /  1023.6hPa NNW 2.9mph /  4.7km/h 9mph /  14.5km/h 70% 0.00in /  0mm 387 W/m2
08:59 59.7 °F /  15.4 °C 50 °F /  10 °C 30.23in /  1023.6hPa NW 2.8mph /  4.5km/h 10mph /  16.1km/h 70.2% 0.00in /  0mm 403 W/m2
09:04 59.7 °F /  15.4 °C 49.6 °F /  9.8 °C 30.24in /  1023.9hPa NNW 4.6mph /  7.4km/h 10mph /  16.1km/h 69.2% 0.00in /  0mm 415 W/m2
09:09 59.8 °F /  15.4 °C 49.4 °F /  9.7 °C 30.23in /  1023.6hPa NW 5.8mph /  9.3km/h 11mph /  17.7km/h 68.4% 0.00in /  0mm 427 W/m2
09:11 59.8 °F /  15.4 °C 49.2 °F /  9.6 °C 30.24in /  1023.9hPa NNW 4.5mph /  7.2km/h 9mph /  14.5km/h 68% 0.00in /  0mm 434 W/m2
09:29 61 °F /  16.1 °C 49.2 °F /  9.6 °C 30.24in /  1023.9hPa WNW 6.4mph /  10.3km/h 12mph /  19.3km/h 65.3% 0.00in /  0mm 478 W/m2
09:34 61.1 °F /  16.2 °C 49.6 °F /  9.8 °C 30.24in /  1023.9hPa NW 6.4mph /  10.3km/h 10mph /  16.1km/h 66% 0.00in /  0mm 490 W/m2
09:39 61.2 °F /  16.2 °C 49.8 °F /  9.9 °C 30.24in /  1023.9hPa NW 7.4mph /  11.9km/h 12mph /  19.3km/h 66.4% 0.00in /  0mm 504 W/m2
09:44 61.1 °F /  16.2 °C 49.8 °F /  9.9 °C 30.24in /  1023.9hPa NW 5.6mph /  9km/h 11mph /  17.7km/h 66.6% 0.00in /  0mm 517 W/m2
09:49 61.4 °F /  16.3 °C 50.2 °F /  10.1 °C 30.24in /  1023.9hPa NW 7.4mph /  11.9km/h 13mph /  20.9km/h 66.6% 0.00in /  0mm 527 W/m2
09:54 61.9 °F /  16.6 °C 50.3 °F /  10.2 °C 30.24in /  1023.9hPa NW 4.9mph /  7.9km/h 13mph /  20.9km/h 65.8% 0.00in /  0mm 540 W/m2
09:59 62.2 °F /  16.8 °C 50.3 °F /  10.2 °C 30.24in /  1023.9hPa NNW 6mph /  9.7km/h 12mph /  19.3km/h 64.8% 0.00in /  0mm 550 W/m2
10:04 62.1 °F /  16.7 °C 49.8 °F /  9.9 °C 30.24in /  1023.9hPa NW 5.8mph /  9.3km/h 10mph /  16.1km/h 64% 0.00in /  0mm 559 W/m2
10:09 62.2 °F /  16.8 °C 50.1 °F /  10.1 °C 30.24in /  1023.9hPa NNW 4.5mph /  7.2km/h 10mph /  16.1km/h 64.4% 0.00in /  0mm 573 W/m2
10:14 62.7 °F /  17.1 °C 49.7 °F /  9.8 °C 30.24in /  1023.9hPa WNW 5.1mph /  8.2km/h 14mph /  22.5km/h 62.4% 0.00in /  0mm 585 W/m2
10:19 63 °F /  17.2 °C 49.6 °F /  9.8 °C 30.24in /  1023.9hPa WNW 6.6mph /  10.6km/h 13mph /  20.9km/h 61.6% 0.00in /  0mm 592 W/m2
10:24 62.9 °F /  17.2 °C 49.2 °F /  9.6 °C 30.24in /  1023.9hPa NW 7.4mph /  11.9km/h 12mph /  19.3km/h 61% 0.00in /  0mm 605 W/m2
10:29 63 °F /  17.2 °C 49.4 °F /  9.7 °C 30.24in /  1023.9hPa NNW 4.5mph /  7.2km/h 12mph /  19.3km/h 61% 0.00in /  0mm 615 W/m2
10:34 63.7 °F /  17.6 °C 49.6 °F /  9.8 °C 30.24in /  1023.9hPa NW 6mph /  9.7km/h 11mph /  17.7km/h 60.2% 0.00in /  0mm 629 W/m2
10:39 64 °F /  17.8 °C 49.9 °F /  9.9 °C 30.24in /  1023.9hPa NNW 5.7mph /  9.2km/h 9mph /  14.5km/h 60.2% 0.00in /  0mm 635 W/m2
10:44 64.3 °F /  17.9 °C 49.8 °F /  9.9 °C 30.24in /  1023.9hPa WNW 5.1mph /  8.2km/h 13mph /  20.9km/h 59.2% 0.00in /  0mm 657 W/m2
10:49 64.4 °F /  18 °C 49.8 °F /  9.9 °C 30.24in /  1023.9hPa NNW 6.8mph /  10.9km/h 13mph /  20.9km/h 59% 0.00in /  0mm 673 W/m2
10:54 64.1 °F /  17.8 °C 49.6 °F /  9.8 °C 30.24in /  1023.9hPa NNW 7.1mph /  11.4km/h 13mph /  20.9km/h 59.2% 0.00in /  0mm 682 W/m2
10:59 63.9 °F /  17.7 °C 49.4 °F /  9.7 °C 30.24in /  1023.9hPa NW 10.4mph /  16.7km/h 15mph /  24.1km/h 59.2% 0.00in /  0mm 689 W/m2
11:04 63.7 °F /  17.6 °C 49.2 °F /  9.6 °C 30.24in /  1023.9hPa NW 7.4mph /  11.9km/h 14mph /  22.5km/h 59.2% 0.00in /  0mm 710 W/m2
11:09 63.9 °F /  17.7 °C 49.5 °F /  9.7 °C 30.24in /  1023.9hPa NNW 8.8mph /  14.2km/h 14mph /  22.5km/h 59.6% 0.00in /  0mm 728 W/m2
11:14 63.9 °F /  17.7 °C 49.5 °F /  9.7 °C 30.24in /  1023.9hPa NW 7.8mph /  12.6km/h 18mph /  29km/h 59.4% 0.00in /  0mm 735 W/m2
11:19 63.8 °F /  17.7 °C 49.4 °F /  9.7 °C 30.24in /  1023.9hPa NW 7.8mph /  12.6km/h 15mph /  24.1km/h 59.4% 0.00in /  0mm 759 W/m2
11:24 64 °F /  17.8 °C 48.9 °F /  9.4 °C 30.24in /  1023.9hPa NW 7mph /  11.3km/h 13mph /  20.9km/h 57.8% 0.00in /  0mm 807 W/m2
11:29 64.5 °F /  18.1 °C 49.1 °F /  9.5 °C 30.24in /  1023.9hPa NW 7mph /  11.3km/h 17mph /  27.4km/h 57.6% 0.00in /  0mm 819 W/m2
11:34 64.8 °F /  18.2 °C 49.4 °F /  9.7 °C 30.24in /  1023.9hPa NW 5.8mph /  9.3km/h 17mph /  27.4km/h 57.4% 0.00in /  0mm 937 W/m2
11:39 65.5 °F /  18.6 °C 49.6 °F /  9.8 °C 30.25in /  1024.3hPa NW 5.4mph /  8.7km/h 14mph /  22.5km/h 56.6% 0.00in /  0mm 974 W/m2
11:44 65.1 °F /  18.4 °C 49.3 °F /  9.6 °C 30.25in /  1024.3hPa NW 6.1mph /  9.8km/h 14mph /  22.5km/h 56.4% 0.00in /  0mm 874 W/m2
11:49 65.1 °F /  18.4 °C 48.6 °F /  9.2 °C 30.25in /  1024.3hPa NW 6.1mph /  9.8km/h 14mph /  22.5km/h 55% 0.00in /  0mm 874 W/m2
11:54 65.2 °F /  18.4 °C 48.5 °F /  9.2 °C 30.25in /  1024.3hPa North 7.5mph /  12.1km/h 13mph /  20.9km/h 54.8% 0.00in /  0mm 928 W/m2
11:59 65.4 °F /  18.6 °C 48.8 °F /  9.3 °C 30.25in /  1024.3hPa NNW 10.4mph /  16.7km/h 17mph /  27.4km/h 55% 0.00in /  0mm 942 W/m2
12:04 65.5 °F /  18.6 °C 48.9 °F /  9.4 °C 30.25in /  1024.3hPa NW 6.8mph /  10.9km/h 15mph /  24.1km/h 55% 0.00in /  0mm 907 W/m2
12:09 65.7 °F /  18.7 °C 49.4 °F /  9.7 °C 30.25in /  1024.3hPa NW 7.4mph /  11.9km/h 14mph /  22.5km/h 55.6% 0.00in /  0mm 193 W/m2
12:14 65.5 °F /  18.6 °C 49.6 °F /  9.8 °C 30.25in /  1024.3hPa WNW 7.9mph /  12.7km/h 17mph /  27.4km/h 56.4% 0.00in /  0mm 900 W/m2
12:19 65.4 °F /  18.6 °C 49.6 °F /  9.8 °C 30.25in /  1024.3hPa WNW 8.2mph /  13.2km/h 17mph /  27.4km/h 56.8% 0.00in /  0mm 904 W/m2
12:24 65.6 °F /  18.7 °C 49.8 °F /  9.9 °C 30.25in /  1024.3hPa West 7.6mph /  12.2km/h 17mph /  27.4km/h 56.8% 0.00in /  0mm 882 W/m2
12:29 66.2 °F /  19 °C 49.8 °F /  9.9 °C 30.26in /  1024.6hPa WNW 6.4mph /  10.3km/h 17mph /  27.4km/h 55.4% 0.00in /  0mm 874 W/m2
12:34 66.4 °F /  19.1 °C 48.9 °F /  9.4 °C 30.26in /  1024.6hPa NNW 7.2mph /  11.6km/h 13mph /  20.9km/h 53.5% 0.00in /  0mm 860 W/m2
12:39 66.7 °F /  19.3 °C 49.8 °F /  9.9 °C 30.26in /  1024.6hPa WNW 5.6mph /  9km/h 14mph /  22.5km/h 54.4% 0.00in /  0mm 942 W/m2
12:44 66.8 °F /  19.3 °C 50 °F /  10 °C 30.26in /  1024.6hPa NW 7.4mph /  11.9km/h 13mph /  20.9km/h 54.8% 0.00in /  0mm 946 W/m2
12:49 66.6 °F /  19.2 °C 49.4 °F /  9.7 °C 30.25in /  1024.3hPa WNW 6.1mph /  9.8km/h 13mph /  20.9km/h 54% 0.00in /  0mm 969 W/m2
12:54 66.6 °F /  19.2 °C 49.5 °F /  9.7 °C 30.26in /  1024.6hPa WNW 12mph /  19.3km/h 19mph /  30.6km/h 54% 0.00in /  0mm 958 W/m2
12:59 66.3 °F /  19.1 °C 49.3 °F /  9.6 °C 30.26in /  1024.6hPa NW 6.2mph /  10km/h 12mph /  19.3km/h 54.4% 0.00in /  0mm 893 W/m2
13:04 66.9 °F /  19.4 °C 49.4 °F /  9.7 °C 30.26in /  1024.6hPa WNW 5.3mph /  8.5km/h 13mph /  20.9km/h 53.2% 0.00in /  0mm 889 W/m2
13:09 67.6 °F /  19.8 °C 49.7 °F /  9.8 °C 30.26in /  1024.6hPa WNW 7.8mph /  12.6km/h 14mph /  22.5km/h 52.6% 0.00in /  0mm 888 W/m2
13:14 67.5 °F /  19.7 °C 49.7 °F /  9.8 °C 30.26in /  1024.6hPa NW 5.1mph /  8.2km/h 10mph /  16.1km/h 52.8% 0.00in /  0mm 895 W/m2
13:19 67.9 °F /  19.9 °C 49.8 °F /  9.9 °C 30.26in /  1024.6hPa West 4.4mph /  7.1km/h 13mph /  20.9km/h 52.4% 0.00in /  0mm 1016 W/m2
13:24 68 °F /  20 °C 49.9 °F /  9.9 °C 30.26in /  1024.6hPa North 7.6mph /  12.2km/h 14mph /  22.5km/h 52.4% 0.00in /  0mm 997 W/m2
13:29 67.2 °F /  19.6 °C 49.8 °F /  9.9 °C 30.26in /  1024.6hPa NW 6.8mph /  10.9km/h 13mph /  20.9km/h 53.6% 0.00in /  0mm 631 W/m2
13:34 67 °F /  19.4 °C 49.6 °F /  9.8 °C 30.26in /  1024.6hPa NW 6.4mph /  10.3km/h 15mph /  24.1km/h 53.6% 0.00in /  0mm 925 W/m2
13:39 67.3 °F /  19.6 °C 49.1 °F /  9.5 °C 30.26in /  1024.6hPa NW 7.4mph /  11.9km/h 15mph /  24.1km/h 52% 0.00in /  0mm 954 W/m2
13:44 67.6 °F /  19.8 °C 49.7 °F /  9.8 °C 30.26in /  1024.6hPa NW 7.1mph /  11.4km/h 16mph /  25.7km/h 52.6% 0.00in /  0mm 951 W/m2
13:49 67.5 °F /  19.7 °C 50.1 °F /  10.1 °C 30.27in /  1024.9hPa NW 8.2mph /  13.2km/h 17mph /  27.4km/h 53.6% 0.00in /  0mm 888 W/m2
13:54 68.2 °F /  20.1 °C 51.1 °F /  10.6 °C 30.26in /  1024.6hPa WNW 4mph /  6.4km/h 11mph /  17.7km/h 54.3% 0.00in /  0mm 886 W/m2
13:59 68.7 °F /  20.4 °C 50.8 °F /  10.4 °C 30.26in /  1024.6hPa WNW 7.6mph /  12.2km/h 17mph /  27.4km/h 52.8% 0.00in /  0mm 912 W/m2
14:04 68.4 °F /  20.2 °C 50.8 °F /  10.4 °C 30.27in /  1024.9hPa NW 8.2mph /  13.2km/h 16mph /  25.7km/h 53.4% 0.00in /  0mm 944 W/m2
14:09 68.4 °F /  20.2 °C 50.4 °F /  10.2 °C 30.27in /  1024.9hPa NW 5.7mph /  9.2km/h 15mph /  24.1km/h 52.8% 0.00in /  0mm 921 W/m2
14:14 68.8 °F /  20.4 °C 51.1 °F /  10.6 °C 30.27in /  1024.9hPa WNW 7.4mph /  11.9km/h 14mph /  22.5km/h 53.2% 0.00in /  0mm 1002 W/m2
14:19 68.5 °F /  20.3 °C 50.2 °F /  10.1 °C 30.27in /  1024.9hPa WNW 5.5mph /  8.9km/h 12mph /  19.3km/h 52.2% 0.00in /  0mm 988 W/m2
14:24 68.8 °F /  20.4 °C 50.3 °F /  10.2 °C 30.27in /  1024.9hPa WNW 8mph /  12.9km/h 16mph /  25.7km/h 51.8% 0.00in /  0mm 949 W/m2
14:29 68.8 °F /  20.4 °C 50.1 °F /  10.1 °C 30.27in /  1024.9hPa WNW 8.8mph /  14.2km/h 17mph /  27.4km/h 51.4% 0.00in /  0mm 976 W/m2
14:34 69.3 °F /  20.7 °C 50.4 °F /  10.2 °C 30.27in /  1024.9hPa WNW 6mph /  9.7km/h 17mph /  27.4km/h 51% 0.00in /  0mm 976 W/m2
14:39 69.4 °F /  20.8 °C 50.4 °F /  10.2 °C 30.27in /  1024.9hPa WNW 6.7mph /  10.8km/h 14mph /  22.5km/h 50.8% 0.00in /  0mm 969 W/m2
14:44 69.7 °F /  20.9 °C 50.7 °F /  10.4 °C 30.27in /  1024.9hPa West 4.9mph /  7.9km/h 14mph /  22.5km/h 50.8% 0.00in /  0mm 251 W/m2
14:49 69 °F /  20.6 °C 49.7 °F /  9.8 °C 30.27in /  1024.9hPa NW 8mph /  12.9km/h 17mph /  27.4km/h 50.2% 0.00in /  0mm 352 W/m2
14:54 68.3 °F /  20.2 °C 49.3 °F /  9.6 °C 30.27in /  1024.9hPa NW 8mph /  12.9km/h 17mph /  27.4km/h 50.8% 0.00in /  0mm 285 W/m2
14:59 67.8 °F /  19.9 °C 49.5 °F /  9.7 °C 30.27in /  1024.9hPa WNW 5.2mph /  8.4km/h 12mph /  19.3km/h 51.8% 0.00in /  0mm 963 W/m2
15:04 68.4 °F /  20.2 °C 49.7 °F /  9.8 °C 30.27in /  1024.9hPa NW 8.8mph /  14.2km/h 16mph /  25.7km/h 51.4% 0.00in /  0mm 919 W/m2
15:09 68.4 °F /  20.2 °C 49.8 °F /  9.9 °C 30.27in /  1024.9hPa WNW 6.5mph /  10.5km/h 13mph /  20.9km/h 51.5% 0.00in /  0mm 919 W/m2
15:14 68.9 °F /  20.5 °C 50.3 °F /  10.2 °C 30.27in /  1024.9hPa NW 8.4mph /  13.5km/h 13mph /  20.9km/h 51.6% 0.00in /  0mm 847 W/m2
15:19 68.9 °F /  20.5 °C 50.1 °F /  10.1 °C 30.27in /  1024.9hPa WSW 4.5mph /  7.2km/h 12mph /  19.3km/h 51.2% 0.00in /  0mm 151 W/m2
15:24 68.1 °F /  20.1 °C 49.4 °F /  9.7 °C 30.27in /  1024.9hPa NW 8mph /  12.9km/h 12mph /  19.3km/h 51.2% 0.00in /  0mm 188 W/m2
15:29 67.5 °F /  19.7 °C 49.6 °F /  9.8 °C 30.27in /  1024.9hPa WNW 5.8mph /  9.3km/h 11mph /  17.7km/h 52.6% 0.00in /  0mm 802 W/m2
15:34 68.3 °F /  20.2 °C 51.1 °F /  10.6 °C 30.27in /  1024.9hPa WNW 5.4mph /  8.7km/h 10mph /  16.1km/h 54% 0.00in /  0mm 780 W/m2
15:39 67.9 °F /  19.9 °C 50.2 °F /  10.1 °C 30.27in /  1024.9hPa WNW 6mph /  9.7km/h 10mph /  16.1km/h 53% 0.00in /  0mm 775 W/m2
15:44 68.3 °F /  20.2 °C 49.9 °F /  9.9 °C 30.27in /  1024.9hPa WNW 5.8mph /  9.3km/h 12mph /  19.3km/h 51.8% 0.00in /  0mm 766 W/m2
15:49 69.1 °F /  20.6 °C 50.4 °F /  10.2 °C 30.27in /  1024.9hPa WNW 4.2mph /  6.8km/h 10mph /  16.1km/h 51.4% 0.00in /  0mm 775 W/m2
15:54 69.4 °F /  20.8 °C 50 °F /  10 °C 30.27in /  1024.9hPa WNW 6.8mph /  10.9km/h 15mph /  24.1km/h 50% 0.00in /  0mm 795 W/m2
15:59 69.5 °F /  20.8 °C 49.8 °F /  9.9 °C 30.27in /  1024.9hPa WNW 7mph /  11.3km/h 14mph /  22.5km/h 49.4% 0.00in /  0mm 891 W/m2
16:04 70.1 °F /  21.2 °C 49.8 °F /  9.9 °C 30.27in /  1024.9hPa WNW 7.8mph /  12.6km/h 15mph /  24.1km/h 48.6% 0.00in /  0mm 895 W/m2
16:09 70.2 °F /  21.2 °C 48.9 °F /  9.4 °C 30.27in /  1024.9hPa West 9.6mph /  15.4km/h 16mph /  25.7km/h 47% 0.00in /  0mm 846 W/m2
16:14 70.1 °F /  21.2 °C 49.4 °F /  9.7 °C 30.27in /  1024.9hPa WNW 6.6mph /  10.6km/h 14mph /  22.5km/h 47.8% 0.00in /  0mm 847 W/m2
16:19 70.1 °F /  21.2 °C 50.6 °F /  10.3 °C 30.27in /  1024.9hPa West 8mph /  12.9km/h 14mph /  22.5km/h 49.8% 0.00in /  0mm 847 W/m2
16:24 69.9 °F /  21.1 °C 50.5 °F /  10.3 °C 30.27in /  1024.9hPa WNW 6.6mph /  10.6km/h 15mph /  24.1km/h 50.2% 0.00in /  0mm 742 W/m2
16:29 69.5 °F /  20.8 °C 50.5 °F /  10.3 °C 30.27in /  1024.9hPa WNW 6.6mph /  10.6km/h 12mph /  19.3km/h 50.8% 0.00in /  0mm 777 W/m2
16:34 69.9 °F /  21.1 °C 50.6 °F /  10.3 °C 30.27in /  1024.9hPa WNW 2.5mph /  4km/h 9mph /  14.5km/h 50.3% 0.00in /  0mm 791 W/m2
16:39 69.7 °F /  20.9 °C 50.2 °F /  10.1 °C 30.27in /  1024.9hPa NW 9.4mph /  15.1km/h 17mph /  27.4km/h 49.8% 0.00in /  0mm 719 W/m2
16:44 70 °F /  21.1 °C 50.2 °F /  10.1 °C 30.27in /  1024.9hPa WNW 6.3mph /  10.1km/h 13mph /  20.9km/h 49.4% 0.00in /  0mm 687 W/m2
16:49 69.8 °F /  21 °C 51.7 °F /  10.9 °C 30.27in /  1024.9hPa WNW 7mph /  11.3km/h 14mph /  22.5km/h 52.4% 0.00in /  0mm 710 W/m2
16:54 69.6 °F /  20.9 °C 52.2 °F /  11.2 °C 30.27in /  1024.9hPa West 6.7mph /  10.8km/h 14mph /  22.5km/h 54% 0.00in /  0mm 715 W/m2
16:59 69.7 °F /  20.9 °C 52.3 °F /  11.3 °C 30.27in /  1024.9hPa WNW 6.6mph /  10.6km/h 12mph /  19.3km/h 54% 0.00in /  0mm 733 W/m2
17:04 69.5 °F /  20.8 °C 51.7 °F /  10.9 °C 30.27in /  1024.9hPa WNW 8.2mph /  13.2km/h 16mph /  25.7km/h 53% 0.00in /  0mm 719 W/m2
17:09 69.5 °F /  20.8 °C 51.1 °F /  10.6 °C 30.27in /  1024.9hPa West 7.5mph /  12.1km/h 16mph /  25.7km/h 52% 0.00in /  0mm 686 W/m2
17:14 69.4 °F /  20.8 °C 51.3 °F /  10.7 °C 30.27in /  1024.9hPa West 5.5mph /  8.9km/h 16mph /  25.7km/h 52.4% 0.00in /  0mm 295 W/m2
17:19 69.7 °F /  20.9 °C 50.5 °F /  10.3 °C 30.27in /  1024.9hPa WNW 6.4mph /  10.3km/h 13mph /  20.9km/h 50.4% 0.00in /  0mm 642 W/m2
17:24 70 °F /  21.1 °C 50.6 °F /  10.3 °C 30.27in /  1024.9hPa NW 9.3mph /  15km/h 15mph /  24.1km/h 50% 0.00in /  0mm 612 W/m2
17:29 69.5 °F /  20.8 °C 50.2 °F /  10.1 °C 30.27in /  1024.9hPa WNW 8mph /  12.9km/h 15mph /  24.1km/h 50.2% 0.00in /  0mm 624 W/m2
17:34 69.1 °F /  20.6 °C 49.9 °F /  9.9 °C 30.27in /  1024.9hPa WNW 7.1mph /  11.4km/h 13mph /  20.9km/h 50.4% 0.00in /  0mm 202 W/m2
17:39 69.4 °F /  20.8 °C 50 °F /  10 °C 30.27in /  1024.9hPa NW 5.8mph /  9.3km/h 11mph /  17.7km/h 50% 0.00in /  0mm 587 W/m2
17:44 69.4 °F /  20.8 °C 49.9 °F /  9.9 °C 30.27in /  1024.9hPa WNW 5.3mph /  8.5km/h 11mph /  17.7km/h 50% 0.00in /  0mm 585 W/m2
17:49 68.4 °F /  20.2 °C 49.2 °F /  9.6 °C 30.27in /  1024.9hPa NW 6.2mph /  10km/h 11mph /  17.7km/h 50.6% 0.00in /  0mm 155 W/m2
17:54 68.2 °F /  20.1 °C 49.6 °F /  9.8 °C 30.27in /  1024.9hPa NW 4.9mph /  7.9km/h 13mph /  20.9km/h 51.6% 0.00in /  0mm 111 W/m2
17:59 68.2 °F /  20.1 °C 49.3 °F /  9.6 °C 30.27in /  1024.9hPa WNW 3.7mph /  6km/h 8mph /  12.9km/h 51% 0.00in /  0mm 111 W/m2
18:04 68.3 °F /  20.2 °C 49.8 °F /  9.9 °C 30.27in /  1024.9hPa WNW 4.8mph /  7.7km/h 12mph /  19.3km/h 51.8% 0.00in /  0mm 457 W/m2
18:09 68.7 °F /  20.4 °C 49.3 °F /  9.6 °C 30.27in /  1024.9hPa WNW 6mph /  9.7km/h 12mph /  19.3km/h 50% 0.00in /  0mm 448 W/m2
18:14 69.3 °F /  20.7 °C 49.8 °F /  9.9 °C 30.27in /  1024.9hPa WNW 7.4mph /  11.9km/h 13mph /  20.9km/h 50% 0.00in /  0mm 443 W/m2
18:19 69.1 °F /  20.6 °C 49.6 °F /  9.8 °C 30.27in /  1024.9hPa NW 6mph /  9.7km/h 11mph /  17.7km/h 50% 0.00in /  0mm 425 W/m2
18:24 69.1 °F /  20.6 °C 49.6 °F /  9.8 °C 30.27in /  1024.9hPa WNW 5.2mph /  8.4km/h 12mph /  19.3km/h 50% 0.00in /  0mm 425 W/m2
18:29 68.5 °F /  20.3 °C 49.1 °F /  9.5 °C 30.28in /  1025.3hPa WNW 7.7mph /  12.4km/h 14mph /  22.5km/h 50% 0.00in /  0mm 410 W/m2
18:34 68.5 °F /  20.3 °C 49.2 °F /  9.6 °C 30.28in /  1025.3hPa NW 7mph /  11.3km/h 14mph /  22.5km/h 50.2% 0.00in /  0mm 392 W/m2
18:39 68.2 °F /  20.1 °C 49.2 °F /  9.6 °C 30.28in /  1025.3hPa WNW 4.9mph /  7.9km/h 14mph /  22.5km/h 50.8% 0.00in /  0mm 120 W/m2
18:43 67.7 °F /  19.8 °C 49 °F /  9.4 °C 30.28in /  1025.3hPa WNW 4.2mph /  6.8km/h 11mph /  17.7km/h 51% 0.00in /  0mm 169 W/m2
18:49 67.4 °F /  19.7 °C 49.2 °F /  9.6 °C 30.28in /  1025.3hPa NW 6mph /  9.7km/h 12mph /  19.3km/h 52% 0.00in /  0mm 195 W/m2
18:54 67.4 °F /  19.7 °C 49 °F /  9.4 °C 30.28in /  1025.3hPa WNW 4.1mph /  6.6km/h 10mph /  16.1km/h 51.6% 0.00in /  0mm 257 W/m2
18:59 67.6 °F /  19.8 °C 48.8 °F /  9.3 °C 30.28in /  1025.3hPa WNW 5.8mph /  9.3km/h 10mph /  16.1km/h 51% 0.00in /  0mm 227 W/m2
19:04 67.2 °F /  19.6 °C 48.7 °F /  9.3 °C 30.28in /  1025.3hPa NW 6.6mph /  10.6km/h 10mph /  16.1km/h 51.4% 0.00in /  0mm 70 W/m2
19:09 66.9 °F /  19.4 °C 48.4 °F /  9.1 °C 30.29in /  1025.6hPa NNW 4.2mph /  6.8km/h 10mph /  16.1km/h 51.4% 0.00in /  0mm 113 W/m2
19:14 67 °F /  19.4 °C 48.3 °F /  9.1 °C 30.29in /  1025.6hPa WNW 4.4mph /  7.1km/h 12mph /  19.3km/h 51% 0.00in /  0mm 172 W/m2
19:19 67.3 °F /  19.6 °C 48.4 °F /  9.1 °C 30.29in /  1025.6hPa NW 4.6mph /  7.4km/h 12mph /  19.3km/h 50.8% 0.00in /  0mm 171 W/m2
19:24 67.5 °F /  19.7 °C 48.4 °F /  9.1 °C 30.29in /  1025.6hPa NW 4.6mph /  7.4km/h 10mph /  16.1km/h 50.4% 0.00in /  0mm 167 W/m2
19:29 67.6 °F /  19.8 °C 48.8 °F /  9.3 °C 30.29in /  1025.6hPa NW 4.9mph /  7.9km/h 9mph /  14.5km/h 50.8% 0.00in /  0mm 156 W/m2
19:34 67.5 °F /  19.7 °C 48.2 °F /  9 °C 30.29in /  1025.6hPa NW 4.9mph /  7.9km/h 10mph /  16.1km/h 49.8% 0.00in /  0mm 137 W/m2
19:39 67.5 °F /  19.7 °C 48.1 °F /  8.9 °C 30.29in /  1025.6hPa NW 5mph /  8km/h 11mph /  17.7km/h 49.8% 0.00in /  0mm 111 W/m2
19:44 66.9 °F /  19.4 °C 47.6 °F /  8.7 °C 30.29in /  1025.6hPa NW 4.9mph /  7.9km/h 10mph /  16.1km/h 49.8% 0.00in /  0mm 116 W/m2
19:49 67 °F /  19.4 °C 47.5 °F /  8.6 °C 30.29in /  1025.6hPa NW 5.2mph /  8.4km/h 9mph /  14.5km/h 49.6% 0.00in /  0mm 97 W/m2
19:54 66.8 °F /  19.3 °C 47.6 °F /  8.7 °C 30.29in /  1025.6hPa NW 4.4mph /  7.1km/h 11mph /  17.7km/h 50% 0.00in /  0mm 67 W/m2
19:59 66.6 °F /  19.2 °C 47.6 °F /  8.7 °C 30.30in /  1026hPa NNW 3.9mph /  6.3km/h 11mph /  17.7km/h 50.6% 0.00in /  0mm 58 W/m2
20:04 66.6 °F /  19.2 °C 47.9 °F /  8.8 °C 30.30in /  1026hPa NW 2.4mph /  3.9km/h 6mph /  9.7km/h 51.2% 0.00in /  0mm 53 W/m2
20:09 66.3 °F /  19.1 °C 48.1 °F /  8.9 °C 30.30in /  1026hPa NW 5.2mph /  8.4km/h 10mph /  16.1km/h 52% 0.00in /  0mm 33 W/m2
20:14 65.6 °F /  18.7 °C 48.1 °F /  8.9 °C 30.30in /  1026hPa NW 4.9mph /  7.9km/h 8mph /  12.9km/h 53.2% 0.00in /  0mm 28 W/m2
20:19 65 °F /  18.3 °C 48.2 °F /  9 °C 30.30in /  1026hPa North 5.2mph /  8.4km/h 8mph /  12.9km/h 54.6% 0.00in /  0mm 21 W/m2
20:24 64.7 °F /  18.2 °C 48.6 °F /  9.2 °C 30.31in /  1026.3hPa NNW 4.9mph /  7.9km/h 10mph /  16.1km/h 55.8% 0.00in /  0mm 19 W/m2
20:29 64.3 °F /  17.9 °C 48.4 °F /  9.1 °C 30.31in /  1026.3hPa NNW 4.2mph /  6.8km/h 7mph /  11.3km/h 56.2% 0.00in /  0mm 16 W/m2
20:34 64.1 °F /  17.8 °C 48.6 °F /  9.2 °C 30.31in /  1026.3hPa NW 4.3mph /  6.9km/h 9mph /  14.5km/h 57% 0.00in /  0mm 14 W/m2
20:39 63.8 °F /  17.7 °C 48.5 °F /  9.2 °C 30.31in /  1026.3hPa North 4.3mph /  6.9km/h 9mph /  14.5km/h 57.4% 0.00in /  0mm 11 W/m2
20:44 63.6 °F /  17.6 °C 48.5 °F /  9.2 °C 30.31in /  1026.3hPa NNW 2.4mph /  3.9km/h 6mph /  9.7km/h 58% 0.00in /  0mm 7 W/m2
20:49 63.3 °F /  17.4 °C 48.4 °F /  9.1 °C 30.32in /  1026.6hPa NNW 2.5mph /  4km/h 6mph /  9.7km/h 58% 0.00in /  0mm 0 W/m2
20:54 63 °F /  17.2 °C 48.2 °F /  9 °C 30.32in /  1026.6hPa NNW 2.1mph /  3.4km/h 5mph /  8km/h 58.2% 0.00in /  0mm 0 W/m2
20:59 62.8 °F /  17.1 °C 48.2 °F /  9 °C 30.32in /  1026.6hPa NNW 3.6mph /  5.8km/h 5mph /  8km/h 59% 0.00in /  0mm 0 W/m2
21:04 62.5 °F /  16.9 °C 48.1 °F /  8.9 °C 30.32in /  1026.6hPa NNW 1.7mph /  2.7km/h 5mph /  8km/h 59.4% 0.00in /  0mm 0 W/m2
21:09 62.3 °F /  16.8 °C 48.2 °F /  9 °C 30.33in /  1027hPa NNW 2.1mph /  3.4km/h 6mph /  9.7km/h 59.8% 0.00in /  0mm 0 W/m2
21:14 62.1 °F /  16.7 °C 48.1 °F /  8.9 °C 30.33in /  1027hPa NNW 2.7mph /  4.3km/h 5mph /  8km/h 60% 0.00in /  0mm 0 W/m2
21:19 61.9 °F /  16.6 °C 48.1 °F /  8.9 °C 30.33in /  1027hPa North 3mph /  4.8km/h 6mph /  9.7km/h 60.8% 0.00in /  0mm 0 W/m2
21:24 61.6 °F /  16.4 °C 48.1 °F /  8.9 °C 30.33in /  1027hPa NW 2.9mph /  4.7km/h 5mph /  8km/h 61% 0.00in /  0mm 0 W/m2
21:29 61.4 °F /  16.3 °C 48.1 °F /  8.9 °C 30.34in /  1027.3hPa NW 1.7mph /  2.7km/h 4mph /  6.4km/h 61.6% 0.00in /  0mm 0 W/m2
21:34 61.3 °F /  16.3 °C 48.2 °F /  9 °C 30.34in /  1027.3hPa NW 0.5mph /  0.8km/h 2mph /  3.2km/h 62% 0.00in /  0mm 0 W/m2
21:39 61.2 °F /  16.2 °C 48.2 °F /  9 °C 30.34in /  1027.3hPa NW 1.3mph /  2.1km/h 2mph /  3.2km/h 62.4% 0.00in /  0mm 0 W/m2
21:44 61 °F /  16.1 °C 48.4 °F /  9.1 °C 30.35in /  1027.7hPa NW 1.7mph /  2.7km/h 3mph /  4.8km/h 63% 0.00in /  0mm 0 W/m2
21:49 60.8 °F /  16 °C 48.2 °F /  9 °C 30.35in /  1027.7hPa NW 1.4mph /  2.3km/h 3mph /  4.8km/h 63% 0.00in /  0mm 0 W/m2
21:54 60.6 °F /  15.9 °C 48.3 °F /  9.1 °C 30.35in /  1027.7hPa NW 1.2mph /  1.9km/h 3mph /  4.8km/h 63.8% 0.00in /  0mm 0 W/m2
21:59 60.4 °F /  15.8 °C 48.2 °F /  9 °C 30.35in /  1027.7hPa NW 1.5mph /  2.4km/h 3mph /  4.8km/h 64% 0.00in /  0mm 0 W/m2
22:04 60.4 °F /  15.8 °C 48.6 °F /  9.2 °C 30.35in /  1027.7hPa NW 1.6mph /  2.6km/h 3mph /  4.8km/h 65% 0.00in /  0mm 0 W/m2
22:09 60.2 °F /  15.7 °C 48.3 °F /  9.1 °C 30.35in /  1027.7hPa NW 3mph /  4.8km/h 5mph /  8km/h 65% 0.00in /  0mm 0 W/m2
22:14 60 °F /  15.6 °C 48.3 °F /  9.1 °C 30.35in /  1027.7hPa NW 1.6mph /  2.6km/h 4mph /  6.4km/h 65.4% 0.00in /  0mm 0 W/m2
22:19 59.9 °F /  15.5 °C 48.6 °F /  9.2 °C 30.36in /  1028hPa NW 2.3mph /  3.7km/h 5mph /  8km/h 66% 0.00in /  0mm 0 W/m2
22:24 59.8 °F /  15.4 °C 48.5 °F /  9.2 °C 30.36in /  1028hPa NW 2.5mph /  4km/h 4mph /  6.4km/h 66% 0.00in /  0mm 0 W/m2
22:29 59.6 °F /  15.3 °C 48.7 °F /  9.3 °C 30.36in /  1028hPa NW 2.1mph /  3.4km/h 4mph /  6.4km/h 67% 0.00in /  0mm 0 W/m2
22:34 59.5 °F /  15.3 °C 48.6 °F /  9.2 °C 30.36in /  1028hPa NW 1.7mph /  2.7km/h 4mph /  6.4km/h 67% 0.00in /  0mm 0 W/m2
22:39 59.4 °F /  15.2 °C 48.4 °F /  9.1 °C 30.36in /  1028hPa NW 1.7mph /  2.7km/h 3mph /  4.8km/h 67% 0.00in /  0mm 0 W/m2
22:44 59.3 °F /  15.2 °C 48.6 °F /  9.2 °C 30.36in /  1028hPa NW 1.7mph /  2.7km/h 4mph /  6.4km/h 67.8% 0.00in /  0mm 0 W/m2
22:49 59.1 °F /  15.1 °C 48.5 °F /  9.2 °C 30.37in /  1028.3hPa NW 1.8mph /  2.9km/h 3mph /  4.8km/h 68% 0.00in /  0mm 0 W/m2
22:54 58.7 °F /  14.8 °C 48.3 °F /  9.1 °C 30.37in /  1028.3hPa NW 1.3mph /  2.1km/h 3mph /  4.8km/h 68.2% 0.00in /  0mm 0 W/m2
22:59 58.5 °F /  14.7 °C 48.4 °F /  9.1 °C 30.37in /  1028.3hPa NW 1.1mph /  1.8km/h 3mph /  4.8km/h 69% 0.00in /  0mm 0 W/m2
23:04 58.3 °F /  14.6 °C 48.2 °F /  9 °C 30.37in /  1028.3hPa NW 0.4mph /  0.6km/h 2mph /  3.2km/h 69% 0.00in /  0mm 0 W/m2
23:09 58.1 °F /  14.5 °C 48.4 °F /  9.1 °C 30.37in /  1028.3hPa NW 0.4mph /  0.6km/h 2mph /  3.2km/h 70% 0.00in /  0mm 0 W/m2
23:14 57.9 °F /  14.4 °C 48.2 °F /  9 °C 30.37in /  1028.3hPa NW 0.2mph /  0.3km/h 2mph /  3.2km/h 70% 0.00in /  0mm 0 W/m2
23:19 57.8 °F /  14.3 °C 48.4 °F /  9.1 °C 30.37in /  1028.3hPa NW 0.5mph /  0.8km/h 2mph /  3.2km/h 70.8% 0.00in /  0mm 0 W/m2
23:24 57.7 °F /  14.3 °C 48.4 °F /  9.1 °C 30.37in /  1028.3hPa Calm   1mph /  1.6km/h 71% 0.00in /  0mm 0 W/m2
23:29 57.7 °F /  14.3 °C 48.4 °F /  9.1 °C 30.37in /  1028.3hPa NW 0.4mph /  0.6km/h 3mph /  4.8km/h 71% 0.00in /  0mm 0 W/m2
23:34 57.7 °F /  14.3 °C 48.4 °F /  9.1 °C 30.37in /  1028.3hPa NW 0.6mph /  1km/h 3mph /  4.8km/h 71% 0.00in /  0mm 0 W/m2
23:39 57.7 °F /  14.3 °C 48.2 °F /  9 °C 30.37in /  1028.3hPa NW 1.2mph /  1.9km/h 3mph /  4.8km/h 70.6% 0.00in /  0mm 0 W/m2
23:44 57.8 °F /  14.3 °C 48.1 °F /  8.9 °C 30.37in /  1028.3hPa NW 1.5mph /  2.4km/h 5mph /  8km/h 70% 0.00in /  0mm 0 W/m2
23:49 57.9 °F /  14.4 °C 47.9 °F /  8.8 °C 30.38in /  1028.7hPa NW 1.2mph /  1.9km/h 4mph /  6.4km/h 69.2% 0.00in /  0mm 0 W/m2
23:54 58 °F /  14.4 °C 47.9 °F /  8.8 °C 30.38in /  1028.7hPa NNW 2.2mph /  3.5km/h 8mph /  12.9km/h 69% 0.00in /  0mm 0 W/m2
23:59 58.3 °F /  14.6 °C 48.1 °F /  8.9 °C 30.38in /  1028.7hPa NNE 2.8mph /  4.5km/h 8mph /  12.9km/h 68.8% 0.00in /  0mm 0 W/m2
Bath Spa Weather
Compliments of Weather Underground - 2 mb